sensor_id;sensor_type;location;lat;lon;timestamp;P1;durP1;ratioP1;P2;durP2;ratioP2
37309;SDS011;23195;47.744;7.358;2023-07-28T05:52:02;4.67;;;3.43;;
37309;SDS011;23195;47.744;7.358;2023-07-28T05:55:06;4.53;;;3.10;;
37309;SDS011;23195;47.744;7.358;2023-07-28T05:57:44;3.23;;;2.90;;
37309;SDS011;23195;47.744;7.358;2023-07-28T06:00:20;3.83;;;3.10;;
37309;SDS011;23195;47.744;7.358;2023-07-28T06:02:47;3.30;;;3.00;;
37309;SDS011;23195;47.744;7.358;2023-07-28T06:05:13;5.97;;;2.90;;
37309;SDS011;23195;47.744;7.358;2023-07-28T06:07:39;4.00;;;2.70;;
37309;SDS011;23195;47.744;7.358;2023-07-28T06:10:07;4.03;;;3.03;;
37309;SDS011;23195;47.744;7.358;2023-07-28T06:12:33;3.73;;;2.93;;
37309;SDS011;23195;47.744;7.358;2023-07-28T06:14:59;6.00;;;3.20;;
37309;SDS011;23195;47.744;7.358;2023-07-28T06:17:27;3.30;;;3.00;;
37309;SDS011;23195;47.744;7.358;2023-07-28T06:20:15;3.10;;;2.80;;
37309;SDS011;23195;47.744;7.358;2023-07-28T06:22:47;3.33;;;2.83;;
37309;SDS011;23195;47.744;7.358;2023-07-28T06:25:30;5.00;;;3.03;;
37309;SDS011;23195;47.744;7.358;2023-07-28T06:28:16;3.20;;;2.60;;
37309;SDS011;23195;47.744;7.358;2023-07-28T06:30:42;4.70;;;2.93;;
37309;SDS011;23195;47.744;7.358;2023-07-28T06:33:08;3.67;;;2.73;;
37309;SDS011;23195;47.744;7.358;2023-07-28T06:35:40;4.20;;;3.17;;
37309;SDS011;23195;47.744;7.358;2023-07-28T06:38:06;3.13;;;2.70;;
37309;SDS011;23195;47.744;7.358;2023-07-28T06:40:32;3.27;;;2.87;;
37309;SDS011;23195;47.744;7.358;2023-07-28T06:43:21;3.30;;;3.00;;
37309;SDS011;23195;47.744;7.358;2023-07-28T06:46:04;3.43;;;2.70;;
37309;SDS011;23195;47.744;7.358;2023-07-28T06:48:38;2.60;;;2.40;;
37309;SDS011;23195;47.744;7.358;2023-07-28T06:51:04;4.50;;;2.90;;
37309;SDS011;23195;47.744;7.358;2023-07-28T06:57:02;4.27;;;2.53;;
37309;SDS011;23195;47.744;7.358;2023-07-28T06:59:58;4.27;;;2.87;;
37309;SDS011;23195;47.744;7.358;2023-07-28T07:05:33;4.27;;;2.60;;
37309;SDS011;23195;47.744;7.358;2023-07-28T07:08:09;3.30;;;2.57;;
37309;SDS011;23195;47.744;7.358;2023-07-28T07:11:16;5.00;;;2.37;;
37309;SDS011;23195;47.744;7.358;2023-07-28T07:13:57;3.97;;;2.27;;
37309;SDS011;23195;47.744;7.358;2023-07-28T07:16:25;3.27;;;2.50;;
37309;SDS011;23195;47.744;7.358;2023-07-28T07:19:46;3.63;;;2.43;;
37309;SDS011;23195;47.744;7.358;2023-07-28T07:22:25;3.07;;;2.40;;
37309;SDS011;23195;47.744;7.358;2023-07-28T07:28:23;3.00;;;2.43;;
37309;SDS011;23195;47.744;7.358;2023-07-28T07:31:02;5.60;;;2.50;;
37309;SDS011;23195;47.744;7.358;2023-07-28T07:33:57;2.63;;;2.30;;
37309;SDS011;23195;47.744;7.358;2023-07-28T07:36:41;2.60;;;2.40;;
37309;SDS011;23195;47.744;7.358;2023-07-28T07:42:59;4.03;;;2.60;;
37309;SDS011;23195;47.744;7.358;2023-07-28T07:45:27;5.40;;;2.40;;
37309;SDS011;23195;47.744;7.358;2023-07-28T07:48:03;3.60;;;2.50;;
37309;SDS011;23195;47.744;7.358;2023-07-28T07:50:37;9.77;;;2.90;;
37309;SDS011;23195;47.744;7.358;2023-07-28T07:53:33;7.97;;;2.97;;
37309;SDS011;23195;47.744;7.358;2023-07-28T07:56:14;8.10;;;2.37;;
37309;SDS011;23195;47.744;7.358;2023-07-28T07:59:20;6.83;;;2.27;;
37309;SDS011;23195;47.744;7.358;2023-07-28T08:08:24;3.47;;;2.60;;
37309;SDS011;23195;47.744;7.358;2023-07-28T08:10:57;3.37;;;2.10;;
37309;SDS011;23195;47.744;7.358;2023-07-28T08:14:03;4.93;;;2.33;;
37309;SDS011;23195;47.744;7.358;2023-07-28T08:16:35;3.57;;;2.03;;
37309;SDS011;23195;47.744;7.358;2023-07-28T08:19:01;4.30;;;2.20;;
37309;SDS011;23195;47.744;7.358;2023-07-28T08:21:27;2.53;;;2.30;;
37309;SDS011;23195;47.744;7.358;2023-07-28T08:26:57;3.30;;;2.17;;
37309;SDS011;23195;47.744;7.358;2023-07-28T08:29:58;3.13;;;2.10;;
37309;SDS011;23195;47.744;7.358;2023-07-28T08:32:43;2.13;;;1.93;;
37309;SDS011;23195;47.744;7.358;2023-07-28T08:35:09;2.33;;;2.07;;
37309;SDS011;23195;47.744;7.358;2023-07-28T08:38:02;2.93;;;2.37;;
37309;SDS011;23195;47.744;7.358;2023-07-28T08:40:46;3.30;;;2.03;;
37309;SDS011;23195;47.744;7.358;2023-07-28T08:43:34;2.50;;;2.07;;
37309;SDS011;23195;47.744;7.358;2023-07-28T08:46:23;2.27;;;2.07;;
37309;SDS011;23195;47.744;7.358;2023-07-28T08:48:57;2.43;;;2.13;;
37309;SDS011;23195;47.744;7.358;2023-07-28T08:52:04;2.53;;;1.80;;
37309;SDS011;23195;47.744;7.358;2023-07-28T08:54:35;5.17;;;2.10;;
37309;SDS011;23195;47.744;7.358;2023-07-28T08:57:09;3.83;;;2.10;;
37309;SDS011;23195;47.744;7.358;2023-07-28T08:59:53;4.13;;;2.10;;
37309;SDS011;23195;47.744;7.358;2023-07-28T09:02:40;3.43;;;2.20;;
37309;SDS011;23195;47.744;7.358;2023-07-28T09:05:32;4.73;;;2.23;;
37309;SDS011;23195;47.744;7.358;2023-07-28T09:08:12;4.73;;;2.47;;
37309;SDS011;23195;47.744;7.358;2023-07-28T09:10:51;3.00;;;1.80;;
37309;SDS011;23195;47.744;7.358;2023-07-28T09:17:13;6.13;;;1.90;;
37309;SDS011;23195;47.744;7.358;2023-07-28T09:30:12;4.47;;;2.00;;
37309;SDS011;23195;47.744;7.358;2023-07-28T09:33:10;4.33;;;2.10;;
37309;SDS011;23195;47.744;7.358;2023-07-28T09:35:46;5.27;;;2.13;;
37309;SDS011;23195;47.744;7.358;2023-07-28T09:38:28;3.13;;;2.00;;
37309;SDS011;23195;47.744;7.358;2023-07-28T09:41:10;3.77;;;2.20;;
37309;SDS011;23195;47.744;7.358;2023-07-28T09:44:14;2.27;;;1.90;;
37309;SDS011;23195;47.744;7.358;2023-07-28T09:47:03;5.00;;;2.17;;
37309;SDS011;23195;47.744;7.358;2023-07-28T09:49:35;2.57;;;1.90;;
37309;SDS011;23195;47.744;7.358;2023-07-28T09:52:13;3.47;;;2.40;;
37309;SDS011;23195;47.744;7.358;2023-07-28T09:54:42;6.10;;;2.20;;
37309;SDS011;23195;47.744;7.358;2023-07-28T09:57:19;2.87;;;2.33;;
37309;SDS011;23195;47.744;7.358;2023-07-28T10:00:04;3.37;;;2.40;;
37309;SDS011;23195;47.744;7.358;2023-07-28T10:02:51;2.20;;;2.00;;
37309;SDS011;23195;47.744;7.358;2023-07-28T10:05:23;2.60;;;2.30;;
37309;SDS011;23195;47.744;7.358;2023-07-28T10:08:06;4.37;;;2.40;;
37309;SDS011;23195;47.744;7.358;2023-07-28T10:10:46;4.27;;;2.23;;
37309;SDS011;23195;47.744;7.358;2023-07-28T10:13:21;2.67;;;2.37;;
37309;SDS011;23195;47.744;7.358;2023-07-28T10:16:02;2.40;;;2.20;;
37309;SDS011;23195;47.744;7.358;2023-07-28T10:18:58;2.63;;;2.43;;
37309;SDS011;23195;47.744;7.358;2023-07-28T10:21:52;2.90;;;2.70;;
37309;SDS011;23195;47.744;7.358;2023-07-28T10:27:38;2.60;;;2.40;;
37309;SDS011;23195;47.744;7.358;2023-07-28T10:30:24;3.23;;;2.40;;
37309;SDS011;23195;47.744;7.358;2023-07-28T10:32:52;2.90;;;2.67;;
37309;SDS011;23195;47.744;7.358;2023-07-28T10:35:47;3.37;;;2.87;;
37309;SDS011;23195;47.744;7.358;2023-07-28T10:41:36;2.90;;;2.70;;
37309;SDS011;23195;47.744;7.358;2023-07-28T10:44:02;2.70;;;2.50;;
37309;SDS011;23195;47.744;7.358;2023-07-28T10:46:37;2.83;;;2.63;;
37309;SDS011;23195;47.744;7.358;2023-07-28T10:49:04;4.07;;;3.30;;
37309;SDS011;23195;47.744;7.358;2023-07-28T10:51:49;3.13;;;2.87;;
37309;SDS011;23195;47.744;7.358;2023-07-28T10:54:21;4.43;;;3.77;;
37309;SDS011;23195;47.744;7.358;2023-07-28T10:56:47;3.63;;;3.30;;
37309;SDS011;23195;47.744;7.358;2023-07-28T10:59:14;5.37;;;3.57;;
37309;SDS011;23195;47.744;7.358;2023-07-28T11:01:46;4.00;;;3.60;;
37309;SDS011;23195;47.744;7.358;2023-07-28T11:04:18;5.13;;;3.50;;
37309;SDS011;23195;47.744;7.358;2023-07-28T11:06:56;4.47;;;3.67;;
37309;SDS011;23195;47.744;7.358;2023-07-28T11:10:02;3.63;;;3.20;;
37309;SDS011;23195;47.744;7.358;2023-07-28T11:12:45;5.80;;;3.90;;
37309;SDS011;23195;47.744;7.358;2023-07-28T11:18:06;4.23;;;3.53;;
37309;SDS011;23195;47.744;7.358;2023-07-28T11:20:43;4.57;;;3.73;;
37309;SDS011;23195;47.744;7.358;2023-07-28T11:23:22;3.77;;;3.47;;
37309;SDS011;23195;47.744;7.358;2023-07-28T11:26:05;4.43;;;3.67;;
37309;SDS011;23195;47.744;7.358;2023-07-28T11:28:43;4.60;;;3.43;;
37309;SDS011;23195;47.744;7.358;2023-07-28T11:31:22;3.40;;;3.10;;
37309;SDS011;23195;47.744;7.358;2023-07-28T11:34:08;3.43;;;3.13;;
37309;SDS011;23195;47.744;7.358;2023-07-28T11:37:12;4.07;;;3.20;;
37309;SDS011;23195;47.744;7.358;2023-07-28T11:39:43;4.03;;;3.53;;
37309;SDS011;23195;47.744;7.358;2023-07-28T11:42:11;4.10;;;3.50;;
37309;SDS011;23195;47.744;7.358;2023-07-28T11:44:38;8.10;;;3.60;;
37309;SDS011;23195;47.744;7.358;2023-07-28T11:47:05;3.60;;;3.30;;
37309;SDS011;23195;47.744;7.358;2023-07-28T11:49:48;3.90;;;3.50;;
37309;SDS011;23195;47.744;7.358;2023-07-28T11:52:38;5.40;;;3.50;;
37309;SDS011;23195;47.744;7.358;2023-07-28T11:55:07;6.03;;;3.33;;
37309;SDS011;23195;47.744;7.358;2023-07-28T11:57:44;6.27;;;3.80;;
37309;SDS011;23195;47.744;7.358;2023-07-28T12:00:51;5.77;;;3.40;;
37309;SDS011;23195;47.744;7.358;2023-07-28T12:03:29;5.93;;;3.03;;
37309;SDS011;23195;47.744;7.358;2023-07-28T12:06:17;8.27;;;3.03;;
37309;SDS011;23195;47.744;7.358;2023-07-28T12:09:28;4.27;;;3.17;;
37309;SDS011;23195;47.744;7.358;2023-07-28T12:11:59;3.70;;;2.60;;
37309;SDS011;23195;47.744;7.358;2023-07-28T12:14:45;2.60;;;2.33;;
37309;SDS011;23195;47.744;7.358;2023-07-28T12:17:27;4.43;;;2.70;;
37309;SDS011;23195;47.744;7.358;2023-07-28T12:22:55;3.90;;;2.90;;
37309;SDS011;23195;47.744;7.358;2023-07-28T12:25:23;3.67;;;2.70;;
37309;SDS011;23195;47.744;7.358;2023-07-28T12:27:54;2.90;;;2.33;;
37309;SDS011;23195;47.744;7.358;2023-07-28T12:30:41;2.27;;;2.07;;
37309;SDS011;23195;47.744;7.358;2023-07-28T12:33:16;3.87;;;1.97;;
37309;SDS011;23195;47.744;7.358;2023-07-28T12:39:13;1.87;;;1.70;;
37309;SDS011;23195;47.744;7.358;2023-07-28T12:41:41;2.30;;;1.80;;
37309;SDS011;23195;47.744;7.358;2023-07-28T12:47:32;1.80;;;1.70;;
37309;SDS011;23195;47.744;7.358;2023-07-28T12:50:03;4.17;;;1.90;;
37309;SDS011;23195;47.744;7.358;2023-07-28T12:52:59;3.53;;;1.73;;
37309;SDS011;23195;47.744;7.358;2023-07-28T12:55:48;3.10;;;2.00;;
37309;SDS011;23195;47.744;7.358;2023-07-28T12:58:16;1.70;;;1.60;;
37309;SDS011;23195;47.744;7.358;2023-07-28T13:01:03;2.17;;;1.63;;
37309;SDS011;23195;47.744;7.358;2023-07-28T13:03:40;1.93;;;1.73;;
37309;SDS011;23195;47.744;7.358;2023-07-28T13:13:18;2.47;;;2.03;;
37309;SDS011;23195;47.744;7.358;2023-07-28T13:16:04;2.70;;;1.63;;
37309;SDS011;23195;47.744;7.358;2023-07-28T13:22:09;2.70;;;1.70;;
37309;SDS011;23195;47.744;7.358;2023-07-28T13:24:40;2.27;;;1.60;;
37309;SDS011;23195;47.744;7.358;2023-07-28T13:27:21;2.73;;;1.50;;
37309;SDS011;23195;47.744;7.358;2023-07-28T13:29:54;1.60;;;1.50;;
37309;SDS011;23195;47.744;7.358;2023-07-28T13:32:46;1.40;;;1.13;;
37309;SDS011;23195;47.744;7.358;2023-07-28T13:35:15;2.50;;;1.50;;
37309;SDS011;23195;47.744;7.358;2023-07-28T13:37:43;1.30;;;1.20;;
37309;SDS011;23195;47.744;7.358;2023-07-28T13:40:28;3.00;;;1.20;;
37309;SDS011;23195;47.744;7.358;2023-07-28T13:43:17;3.17;;;1.63;;
37309;SDS011;23195;47.744;7.358;2023-07-28T13:49:51;1.87;;;1.67;;
37309;SDS011;23195;47.744;7.358;2023-07-28T13:52:47;2.20;;;1.60;;
37309;SDS011;23195;47.744;7.358;2023-07-28T13:58:35;1.43;;;1.30;;
37309;SDS011;23195;47.744;7.358;2023-07-28T14:01:03;2.80;;;1.67;;
37309;SDS011;23195;47.744;7.358;2023-07-28T14:04:13;3.90;;;1.70;;
37309;SDS011;23195;47.744;7.358;2023-07-28T14:06:55;1.47;;;1.37;;
37309;SDS011;23195;47.744;7.358;2023-07-28T14:09:23;1.70;;;1.40;;
37309;SDS011;23195;47.744;7.358;2023-07-28T14:12:09;3.40;;;1.80;;
37309;SDS011;23195;47.744;7.358;2023-07-28T14:14:52;3.77;;;1.60;;
37309;SDS011;23195;47.744;7.358;2023-07-28T14:17:20;2.77;;;1.77;;
37309;SDS011;23195;47.744;7.358;2023-07-28T14:19:55;2.20;;;1.83;;
37309;SDS011;23195;47.744;7.358;2023-07-28T14:22:49;2.07;;;1.60;;
37309;SDS011;23195;47.744;7.358;2023-07-28T14:25:35;2.00;;;1.60;;
37309;SDS011;23195;47.744;7.358;2023-07-28T14:28:21;3.37;;;1.40;;
37309;SDS011;23195;47.744;7.358;2023-07-28T14:30:49;2.87;;;1.50;;
37309;SDS011;23195;47.744;7.358;2023-07-28T14:33:29;1.50;;;1.40;;
37309;SDS011;23195;47.744;7.358;2023-07-28T14:35:57;1.87;;;1.77;;
37309;SDS011;23195;47.744;7.358;2023-07-28T14:38:31;2.43;;;1.60;;
37309;SDS011;23195;47.744;7.358;2023-07-28T14:44:35;1.30;;;1.20;;
37309;SDS011;23195;47.744;7.358;2023-07-28T14:47:01;1.83;;;1.70;;
37309;SDS011;23195;47.744;7.358;2023-07-28T14:49:37;1.60;;;1.50;;
37309;SDS011;23195;47.744;7.358;2023-07-28T14:58:27;2.07;;;1.80;;
37309;SDS011;23195;47.744;7.358;2023-07-28T15:01:33;3.33;;;1.73;;
37309;SDS011;23195;47.744;7.358;2023-07-28T15:04:02;3.37;;;1.67;;
37309;SDS011;23195;47.744;7.358;2023-07-28T15:06:40;1.97;;;1.80;;
37309;SDS011;23195;47.744;7.358;2023-07-28T15:09:22;3.47;;;1.93;;
37309;SDS011;23195;47.744;7.358;2023-07-28T15:12:00;5.10;;;1.87;;
37309;SDS011;23195;47.744;7.358;2023-07-28T15:14:35;3.30;;;2.10;;
37309;SDS011;23195;47.744;7.358;2023-07-28T15:17:07;2.37;;;1.80;;
37309;SDS011;23195;47.744;7.358;2023-07-28T15:19:55;2.97;;;1.70;;
37309;SDS011;23195;47.744;7.358;2023-07-28T15:26:02;1.50;;;1.40;;
37309;SDS011;23195;47.744;7.358;2023-07-28T15:28:57;3.97;;;1.57;;
37309;SDS011;23195;47.744;7.358;2023-07-28T15:31:56;2.20;;;1.23;;
37309;SDS011;23195;47.744;7.358;2023-07-28T15:37:40;1.87;;;1.20;;
37309;SDS011;23195;47.744;7.358;2023-07-28T15:40:38;1.70;;;1.30;;
37309;SDS011;23195;47.744;7.358;2023-07-28T15:43:56;1.57;;;1.20;;
37309;SDS011;23195;47.744;7.358;2023-07-28T15:47:14;1.57;;;1.40;;
37309;SDS011;23195;47.744;7.358;2023-07-28T15:50:06;2.10;;;1.20;;
37309;SDS011;23195;47.744;7.358;2023-07-28T15:56:47;1.30;;;1.20;;
37309;SDS011;23195;47.744;7.358;2023-07-28T15:59:59;1.37;;;1.10;;
37309;SDS011;23195;47.744;7.358;2023-07-28T16:13:47;1.90;;;1.58;;
37309;SDS011;23195;47.744;7.358;2023-07-28T16:19:41;2.10;;;1.63;;
37309;SDS011;23195;47.744;7.358;2023-07-28T16:22:12;2.27;;;1.40;;
37309;SDS011;23195;47.744;7.358;2023-07-28T16:28:21;2.73;;;1.23;;
37309;SDS011;23195;47.744;7.358;2023-07-28T16:31:13;1.63;;;1.30;;
37309;SDS011;23195;47.744;7.358;2023-07-28T16:41:30;2.87;;;1.20;;
37309;SDS011;23195;47.744;7.358;2023-07-28T16:44:15;2.23;;;1.10;;
37309;SDS011;23195;47.744;7.358;2023-07-28T16:47:02;2.70;;;1.20;;
37309;SDS011;23195;47.744;7.358;2023-07-28T16:53:06;1.50;;;1.20;;
37309;SDS011;23195;47.744;7.358;2023-07-28T16:59:48;1.30;;;1.20;;
37309;SDS011;23195;47.744;7.358;2023-07-28T17:06:23;2.03;;;1.03;;
37309;SDS011;23195;47.744;7.358;2023-07-28T17:12:44;2.50;;;1.50;;
37309;SDS011;23195;47.744;7.358;2023-07-28T17:15:15;1.53;;;1.13;;
37309;SDS011;23195;47.744;7.358;2023-07-28T17:17:58;1.47;;;1.23;;
37309;SDS011;23195;47.744;7.358;2023-07-28T17:20:45;2.07;;;1.40;;
37309;SDS011;23195;47.744;7.358;2023-07-28T17:23:40;1.13;;;1.03;;
37309;SDS011;23195;47.744;7.358;2023-07-28T17:29:36;2.57;;;1.20;;
37309;SDS011;23195;47.744;7.358;2023-07-28T17:41:46;1.53;;;1.33;;
37309;SDS011;23195;47.744;7.358;2023-07-28T17:44:53;2.00;;;1.33;;
37309;SDS011;23195;47.744;7.358;2023-07-28T17:47:46;1.67;;;1.30;;
37309;SDS011;23195;47.744;7.358;2023-07-28T18:00:46;1.87;;;1.40;;
37309;SDS011;23195;47.744;7.358;2023-07-28T18:03:29;1.63;;;1.30;;
37309;SDS011;23195;47.744;7.358;2023-07-28T18:09:50;1.53;;;1.20;;
37309;SDS011;23195;47.744;7.358;2023-07-28T18:12:36;1.10;;;1.00;;
37309;SDS011;23195;47.744;7.358;2023-07-28T18:15:30;2.60;;;1.10;;
37309;SDS011;23195;47.744;7.358;2023-07-28T18:18:24;1.40;;;1.30;;
37309;SDS011;23195;47.744;7.358;2023-07-28T18:27:39;1.57;;;1.23;;
37309;SDS011;23195;47.744;7.358;2023-07-28T18:30:44;2.10;;;1.30;;
37309;SDS011;23195;47.744;7.358;2023-07-28T18:33:29;2.57;;;1.50;;
37309;SDS011;23195;47.744;7.358;2023-07-28T18:39:20;1.93;;;1.53;;
37309;SDS011;23195;47.744;7.358;2023-07-28T18:42:24;2.20;;;1.90;;
37309;SDS011;23195;47.744;7.358;2023-07-28T18:45:13;1.57;;;1.17;;
37309;SDS011;23195;47.744;7.358;2023-07-28T18:48:13;2.97;;;1.20;;
37309;SDS011;23195;47.744;7.358;2023-07-28T18:50:59;2.37;;;1.53;;
37309;SDS011;23195;47.744;7.358;2023-07-28T18:53:53;2.17;;;1.30;;
37309;SDS011;23195;47.744;7.358;2023-07-28T18:56:54;1.50;;;1.40;;
37309;SDS011;23195;47.744;7.358;2023-07-28T18:59:26;2.10;;;1.53;;
37309;SDS011;23195;47.744;7.358;2023-07-28T19:06:00;1.40;;;1.30;;
37309;SDS011;23195;47.744;7.358;2023-07-28T19:11:53;2.53;;;1.57;;
37309;SDS011;23195;47.744;7.358;2023-07-28T19:14:56;3.27;;;1.50;;
37309;SDS011;23195;47.744;7.358;2023-07-28T19:17:42;2.13;;;1.40;;
37309;SDS011;23195;47.744;7.358;2023-07-28T19:20:45;2.43;;;1.50;;
37309;SDS011;23195;47.744;7.358;2023-07-28T19:23:20;4.23;;;1.30;;
37309;SDS011;23195;47.744;7.358;2023-07-28T19:25:57;2.20;;;1.27;;
37309;SDS011;23195;47.744;7.358;2023-07-28T19:28:40;4.23;;;1.60;;
37309;SDS011;23195;47.744;7.358;2023-07-28T19:34:52;1.57;;;1.33;;
37309;SDS011;23195;47.744;7.358;2023-07-28T19:40:32;1.43;;;1.33;;
37309;SDS011;23195;47.744;7.358;2023-07-28T19:43:23;1.57;;;1.47;;
37309;SDS011;23195;47.744;7.358;2023-07-28T19:45:57;3.37;;;1.40;;
37309;SDS011;23195;47.744;7.358;2023-07-28T19:48:26;3.63;;;1.50;;
37309;SDS011;23195;47.744;7.358;2023-07-28T19:51:01;1.73;;;1.37;;
37309;SDS011;23195;47.744;7.358;2023-07-28T19:53:52;1.80;;;1.50;;
37309;SDS011;23195;47.744;7.358;2023-07-28T19:56:27;1.80;;;1.37;;
37309;SDS011;23195;47.744;7.358;2023-07-28T19:58:57;1.80;;;1.60;;
37309;SDS011;23195;47.744;7.358;2023-07-28T20:01:23;2.07;;;1.13;;
37309;SDS011;23195;47.744;7.358;2023-07-28T20:03:58;1.63;;;1.33;;
37309;SDS011;23195;47.744;7.358;2023-07-28T20:06:27;1.30;;;1.20;;
37309;SDS011;23195;47.744;7.358;2023-07-28T20:08:55;2.30;;;1.77;;
37309;SDS011;23195;47.744;7.358;2023-07-28T20:11:24;2.73;;;1.30;;
37309;SDS011;23195;47.744;7.358;2023-07-28T20:14:00;2.03;;;1.23;;
37309;SDS011;23195;47.744;7.358;2023-07-28T20:16:29;4.30;;;1.50;;
37309;SDS011;23195;47.744;7.358;2023-07-28T20:19:13;2.23;;;1.30;;
37309;SDS011;23195;47.744;7.358;2023-07-28T20:21:41;1.43;;;1.33;;
37309;SDS011;23195;47.744;7.358;2023-07-28T20:24:08;1.73;;;1.30;;
37309;SDS011;23195;47.744;7.358;2023-07-28T20:26:36;1.50;;;1.40;;
37309;SDS011;23195;47.744;7.358;2023-07-28T20:29:05;2.13;;;1.50;;
37309;SDS011;23195;47.744;7.358;2023-07-28T20:31:33;1.77;;;1.40;;
37309;SDS011;23195;47.744;7.358;2023-07-28T20:34:17;3.40;;;1.70;;
37309;SDS011;23195;47.744;7.358;2023-07-28T20:36:48;2.80;;;1.60;;
37309;SDS011;23195;47.744;7.358;2023-07-28T20:39:16;1.73;;;1.47;;
37309;SDS011;23195;47.744;7.358;2023-07-28T20:41:47;1.93;;;1.50;;
37309;SDS011;23195;47.744;7.358;2023-07-28T20:44:28;4.87;;;1.40;;
37309;SDS011;23195;47.744;7.358;2023-07-28T20:46:53;1.37;;;1.27;;
37309;SDS011;23195;47.744;7.358;2023-07-28T20:49:19;1.80;;;1.40;;
37309;SDS011;23195;47.744;7.358;2023-07-28T20:51:45;1.93;;;1.10;;
37309;SDS011;23195;47.744;7.358;2023-07-28T20:54:11;2.83;;;1.43;;
37309;SDS011;23195;47.744;7.358;2023-07-28T20:56:37;2.53;;;1.03;;
37309;SDS011;23195;47.744;7.358;2023-07-28T20:59:02;1.70;;;1.50;;
37309;SDS011;23195;47.744;7.358;2023-07-28T21:01:28;2.07;;;1.83;;
37309;SDS011;23195;47.744;7.358;2023-07-28T21:03:54;2.67;;;2.27;;
37309;SDS011;23195;47.744;7.358;2023-07-28T21:06:20;2.03;;;1.63;;
37309;SDS011;23195;47.744;7.358;2023-07-28T21:08:46;1.60;;;1.50;;
37309;SDS011;23195;47.744;7.358;2023-07-28T21:11:11;2.70;;;1.63;;
37309;SDS011;23195;47.744;7.358;2023-07-28T21:13:37;1.60;;;1.50;;
37309;SDS011;23195;47.744;7.358;2023-07-28T21:16:03;1.80;;;1.40;;
37309;SDS011;23195;47.744;7.358;2023-07-28T21:18:29;2.10;;;1.60;;
37309;SDS011;23195;47.744;7.358;2023-07-28T21:20:56;2.57;;;1.60;;
37309;SDS011;23195;47.744;7.358;2023-07-28T21:23:22;2.50;;;1.40;;
37309;SDS011;23195;47.744;7.358;2023-07-28T21:25:47;2.70;;;2.10;;
37309;SDS011;23195;47.744;7.358;2023-07-28T21:28:13;7.17;;;2.23;;
37309;SDS011;23195;47.744;7.358;2023-07-28T21:30:39;4.33;;;1.90;;
37309;SDS011;23195;47.744;7.358;2023-07-28T21:33:07;2.77;;;1.80;;
37309;SDS011;23195;47.744;7.358;2023-07-28T21:35:33;5.57;;;2.10;;
37309;SDS011;23195;47.744;7.358;2023-07-28T21:37:58;3.60;;;1.57;;
37309;SDS011;23195;47.744;7.358;2023-07-28T21:40:26;2.47;;;1.67;;
37309;SDS011;23195;47.744;7.358;2023-07-28T21:42:52;3.10;;;1.80;;
37309;SDS011;23195;47.744;7.358;2023-07-28T21:45:18;2.57;;;1.87;;
37309;SDS011;23195;47.744;7.358;2023-07-28T21:47:44;3.20;;;1.90;;
37309;SDS011;23195;47.744;7.358;2023-07-28T21:50:11;2.47;;;1.53;;
37309;SDS011;23195;47.744;7.358;2023-07-28T21:52:37;4.53;;;2.00;;
37309;SDS011;23195;47.744;7.358;2023-07-28T21:55:06;2.63;;;1.57;;
37309;SDS011;23195;47.744;7.358;2023-07-28T21:57:36;3.03;;;1.63;;
37309;SDS011;23195;47.744;7.358;2023-07-28T22:00:03;1.73;;;1.63;;
37309;SDS011;23195;47.744;7.358;2023-07-28T22:02:30;4.13;;;1.80;;
37309;SDS011;23195;47.744;7.358;2023-07-28T22:04:55;2.67;;;1.70;;
37309;SDS011;23195;47.744;7.358;2023-07-28T22:07:21;1.93;;;1.73;;
37309;SDS011;23195;47.744;7.358;2023-07-28T22:09:47;2.13;;;1.90;;
37309;SDS011;23195;47.744;7.358;2023-07-28T22:12:13;3.90;;;1.80;;
37309;SDS011;23195;47.744;7.358;2023-07-28T22:14:38;3.93;;;1.93;;
37309;SDS011;23195;47.744;7.358;2023-07-28T22:17:04;2.20;;;1.87;;
37309;SDS011;23195;47.744;7.358;2023-07-28T22:19:30;2.60;;;2.00;;
37309;SDS011;23195;47.744;7.358;2023-07-28T22:22:01;2.70;;;2.33;;
37309;SDS011;23195;47.744;7.358;2023-07-28T22:24:27;5.27;;;2.10;;
37309;SDS011;23195;47.744;7.358;2023-07-28T22:26:56;4.03;;;1.90;;
37309;SDS011;23195;47.744;7.358;2023-07-28T22:29:22;3.83;;;1.93;;
37309;SDS011;23195;47.744;7.358;2023-07-28T22:31:49;2.57;;;1.93;;
37309;SDS011;23195;47.744;7.358;2023-07-28T22:34:15;2.17;;;1.90;;
37309;SDS011;23195;47.744;7.358;2023-07-28T22:36:41;3.30;;;2.20;;
37309;SDS011;23195;47.744;7.358;2023-07-28T22:39:07;4.90;;;1.80;;
37309;SDS011;23195;47.744;7.358;2023-07-28T22:41:33;2.47;;;2.00;;
37309;SDS011;23195;47.744;7.358;2023-07-28T22:43:59;2.30;;;2.00;;
37309;SDS011;23195;47.744;7.358;2023-07-28T22:46:25;4.10;;;2.40;;
37309;SDS011;23195;47.744;7.358;2023-07-28T22:48:50;2.67;;;1.70;;
37309;SDS011;23195;47.744;7.358;2023-07-28T22:51:16;4.77;;;2.13;;
37309;SDS011;23195;47.744;7.358;2023-07-28T22:53:42;2.10;;;1.90;;
37309;SDS011;23195;47.744;7.358;2023-07-28T22:56:08;2.60;;;2.30;;
37309;SDS011;23195;47.744;7.358;2023-07-28T22:58:35;3.30;;;2.27;;
37309;SDS011;23195;47.744;7.358;2023-07-28T23:01:01;2.90;;;2.10;;
37309;SDS011;23195;47.744;7.358;2023-07-28T23:03:27;3.67;;;2.40;;
37309;SDS011;23195;47.744;7.358;2023-07-28T23:05:52;3.33;;;2.40;;
37309;SDS011;23195;47.744;7.358;2023-07-28T23:08:18;2.73;;;1.90;;
37309;SDS011;23195;47.744;7.358;2023-07-28T23:10:44;2.60;;;2.17;;
37309;SDS011;23195;47.744;7.358;2023-07-28T23:13:10;2.63;;;2.30;;
37309;SDS011;23195;47.744;7.358;2023-07-28T23:15:36;3.67;;;2.23;;
37309;SDS011;23195;47.744;7.358;2023-07-28T23:18:01;2.83;;;2.10;;
37309;SDS011;23195;47.744;7.358;2023-07-28T23:20:31;3.33;;;2.20;;
37309;SDS011;23195;47.744;7.358;2023-07-28T23:23:00;2.30;;;2.07;;
37309;SDS011;23195;47.744;7.358;2023-07-28T23:25:25;4.40;;;2.40;;
37309;SDS011;23195;47.744;7.358;2023-07-28T23:27:51;3.73;;;2.60;;
37309;SDS011;23195;47.744;7.358;2023-07-28T23:30:17;2.97;;;2.30;;
37309;SDS011;23195;47.744;7.358;2023-07-28T23:32:43;2.30;;;2.07;;
37309;SDS011;23195;47.744;7.358;2023-07-28T23:35:08;3.33;;;2.40;;
37309;SDS011;23195;47.744;7.358;2023-07-28T23:37:34;2.47;;;2.20;;
37309;SDS011;23195;47.744;7.358;2023-07-28T23:40:00;3.83;;;2.17;;
37309;SDS011;23195;47.744;7.358;2023-07-28T23:42:26;3.63;;;2.20;;
37309;SDS011;23195;47.744;7.358;2023-07-28T23:44:51;3.43;;;2.20;;
37309;SDS011;23195;47.744;7.358;2023-07-28T23:47:17;2.57;;;2.20;;
37309;SDS011;23195;47.744;7.358;2023-07-28T23:49:43;3.07;;;2.30;;
37309;SDS011;23195;47.744;7.358;2023-07-28T23:52:09;3.70;;;2.30;;
37309;SDS011;23195;47.744;7.358;2023-07-28T23:54:35;2.47;;;2.13;;
37309;SDS011;23195;47.744;7.358;2023-07-28T23:57:00;2.43;;;2.10;;
37309;SDS011;23195;47.744;7.358;2023-07-28T23:59:26;2.40;;;2.07;;
